KPSM/PSM METAR and TAF weather

Enter ICAO airport designator
Station Type Date Time Source
KPSM METAR 2021/03/04 23:56 UTC NOAA

KPSM 042356Z 29013G23KT 10SM CLR M01/M16 A2959 RMK AO2A PK WND 27027/23 SLP024 T10111157 10023 21011 52007


Station Type Date Time Source
KPSM Decoded METAR 2021/03/04 23:56 UTC NOAA

Pease Air Force Base / Portsmouth, NH, United States (KPSM) 43-05N 070-49W
Mar 04, 2021 - 06:56 PM EST / 2021.03.04 2356 UTC
Wind: from the WNW (290 degrees) at 15 MPH (13 KT) gusting to 26 MPH (23 KT):0
Visibility: 10 mile(s):0
Sky conditions: clear
Temperature: 30.0 F (-1.1 C)
Windchill: 19 F (-7 C):1
Dew Point: 3.7 F (-15.7 C)
Relative Humidity: 32%
Pressure (altimeter): 29.59 in. Hg (1002 hPa)
Pressure tendency: 0.02 inches (0.7 hPa) higher than three hours ago
ob: KPSM 042356Z 29013G23KT 10SM CLR M01/M16 A2959 RMK AO2A PK WND 27027/23 SLP024 T10111157 10023 21011 52007
cycle: 0

Station Type Date Time Source
KPSM TAF 2021/03/04 18:22 UTC NOAA

TAF KPSM 041720Z 0418/0518 31019G29KT P6SM FEW050
FM050600 31010G18KT P6SM SCT060
FM051400 30014G22KT P6SM FEW050

Example: see airport list